createdAt,value
2019-01-31T00:01:51.312Z,59.07
2019-01-31T00:05:42.950Z,61.67
2019-01-31T00:08:58.846Z,56.47
2019-01-31T00:12:46.242Z,56.10
2019-01-31T00:16:33.786Z,58.30
2019-01-31T00:20:39.701Z,61.40
2019-01-31T00:23:52.166Z,58.77
2019-01-31T00:27:35.748Z,60.03
2019-01-31T00:31:20.886Z,60.20
2019-01-31T00:35:35.981Z,53.27
2019-01-31T00:39:00.547Z,63.07
2019-01-31T00:42:40.726Z,58.60
2019-01-31T00:46:14.598Z,52.73
2019-01-31T00:49:52.192Z,56.57
2019-01-31T00:53:06.009Z,51.40
2019-01-31T00:56:37.226Z,51.30
2019-01-31T01:00:02.260Z,55.23
2019-01-31T01:03:43.256Z,60.23
2019-01-31T01:07:18.121Z,55.30
2019-01-31T01:10:30.216Z,57.97
2019-01-31T01:14:02.868Z,57.87
2019-01-31T01:17:19.309Z,52.60
2019-01-31T01:20:51.091Z,56.73
2019-01-31T01:24:31.501Z,56.20
2019-01-31T01:27:57.198Z,51.17
2019-01-31T01:31:14.526Z,51.60
2019-01-31T01:34:47.977Z,51.23
2019-01-31T01:38:30.317Z,51.03
2019-01-31T01:42:07.665Z,49.23
2019-01-31T01:45:45.427Z,42.40
2019-01-31T01:49:25.046Z,45.03
2019-01-31T01:52:59.281Z,41.20
2019-01-31T01:56:33.516Z,47.27
2019-01-31T02:00:20.094Z,40.00
2019-01-31T02:04:12.898Z,39.87
2019-01-31T02:08:03.351Z,41.77
2019-01-31T02:11:47.922Z,40.87
2019-01-31T02:15:08.111Z,36.87
2019-01-31T02:18:25.687Z,39.93
2019-01-31T02:21:55.697Z,34.40
2019-01-31T02:25:07.640Z,34.50
2019-01-31T02:28:41.718Z,35.30
2019-01-31T02:32:09.668Z,39.93
2019-01-31T02:35:38.612Z,36.63
2019-01-31T02:39:20.063Z,35.43
2019-01-31T02:42:35.031Z,40.70
2019-01-31T02:46:21.576Z,29.70
2019-01-31T02:50:18.454Z,39.60
2019-01-31T02:53:31.713Z,36.17
2019-01-31T02:57:25.295Z,35.23
2019-01-31T03:01:06.167Z,38.07
2019-01-31T03:04:47.360Z,39.73
2019-01-31T03:08:18.341Z,48.53
2019-01-31T03:12:02.130Z,40.67
2019-01-31T03:15:20.262Z,36.57
2019-01-31T03:18:51.361Z,39.33
2019-01-31T03:22:19.956Z,42.53
2019-01-31T03:25:46.615Z,40.37
2019-01-31T03:29:46.229Z,45.90
2019-01-31T03:33:06.308Z,39.43
2019-01-31T03:36:31.589Z,39.40
2019-01-31T03:40:33.714Z,42.00
2019-01-31T03:43:54.967Z,36.50
2019-01-31T03:47:48.397Z,41.30
2019-01-31T03:51:25.897Z,40.03
2019-01-31T03:55:22.720Z,38.43
2019-01-31T03:58:38.092Z,36.00
2019-01-31T04:02:34.720Z,35.93
2019-01-31T04:05:57.593Z,37.87
2019-01-31T04:09:00.166Z,39.63
2019-01-31T04:12:02.836Z,39.20
2019-01-31T04:15:06.881Z,41.47
2019-01-31T04:18:09.550Z,35.77
2019-01-31T04:21:12.276Z,39.17
2019-01-31T04:24:14.827Z,33.20
2019-01-31T04:27:17.663Z,31.63
2019-01-31T04:30:20.826Z,39.90
2019-01-31T04:33:23.532Z,33.37
2019-01-31T04:36:26.130Z,34.57
2019-01-31T04:39:28.890Z,36.60
2019-01-31T04:42:31.450Z,39.70
2019-01-31T04:45:34.030Z,34.77
2019-01-31T04:48:36.729Z,35.10
2019-01-31T04:51:40.629Z,32.43
2019-01-31T04:54:43.324Z,31.33
2019-01-31T04:57:45.979Z,31.57
2019-01-31T05:00:48.573Z,32.40
2019-01-31T05:03:51.149Z,31.23
2019-01-31T05:06:53.732Z,32.97
2019-01-31T05:09:56.295Z,33.00
2019-01-31T05:12:58.889Z,32.10
2019-01-31T05:16:03.786Z,29.90
2019-01-31T05:19:06.161Z,36.57
2019-01-31T05:22:08.751Z,34.90
2019-01-31T05:25:12.384Z,37.10
2019-01-31T05:28:14.966Z,41.90
2019-01-31T05:31:17.583Z,39.57
2019-01-31T05:34:20.267Z,37.50
2019-01-31T05:37:25.925Z,39.30
2019-01-31T05:40:28.587Z,34.77
2019-01-31T05:43:31.311Z,34.77
2019-01-31T05:46:35.012Z,36.40
2019-01-31T05:49:37.579Z,36.43
2019-01-31T05:52:40.306Z,41.93
2019-01-31T05:55:42.870Z,41.93
2019-01-31T05:58:45.543Z,38.00
2019-01-31T06:01:49.315Z,33.43
2019-01-31T06:04:53.941Z,37.17
2019-01-31T06:07:56.612Z,40.57
2019-01-31T06:11:07.119Z,37.00
2019-01-31T06:14:04.194Z,38.93
2019-01-31T06:17:06.829Z,36.23
2019-01-31T06:20:11.954Z,35.87
2019-01-31T06:23:15.564Z,35.93
2019-01-31T06:26:18.169Z,36.30
2019-01-31T06:29:20.836Z,38.50
2019-01-31T06:32:23.415Z,33.57
2019-01-31T06:35:25.984Z,40.73
2019-01-31T06:38:28.605Z,32.07
2019-01-31T06:41:31.170Z,33.50
2019-01-31T06:44:33.887Z,28.80
2019-01-31T06:47:36.584Z,31.80
2019-01-31T06:50:39.170Z,38.27
2019-01-31T06:53:41.759Z,29.83
2019-01-31T06:56:44.410Z,34.83
2019-01-31T06:59:47.027Z,34.00
2019-01-31T07:02:50.046Z,33.87
2019-01-31T07:05:52.621Z,26.90
2019-01-31T07:08:55.185Z,26.20
2019-01-31T07:11:57.889Z,26.97
2019-01-31T07:15:00.450Z,27.67
2019-01-31T07:18:03.029Z,32.30
2019-01-31T07:21:05.640Z,29.80
2019-01-31T07:24:08.301Z,35.67
2019-01-31T07:27:10.949Z,32.97
2019-01-31T07:30:14.573Z,24.73
2019-01-31T07:33:17.138Z,27.33
2019-01-31T07:36:19.750Z,35.87
2019-01-31T07:39:22.380Z,29.53
2019-01-31T07:42:25.083Z,31.60
2019-01-31T07:45:29.223Z,26.13
2019-01-31T07:48:32.062Z,26.80
2019-01-31T07:51:34.882Z,27.00
2019-01-31T07:54:38.430Z,29.03
2019-01-31T07:57:41.070Z,28.30
2019-01-31T08:00:43.690Z,25.60
2019-01-31T08:03:46.430Z,26.40
2019-01-31T08:06:49.258Z,28.17
2019-01-31T08:09:51.816Z,27.80
2019-01-31T08:12:54.625Z,28.77
2019-01-31T08:15:57.295Z,27.27
2019-01-31T08:18:59.996Z,27.90
2019-01-31T08:22:02.703Z,21.37
2019-01-31T08:25:05.770Z,25.63
2019-01-31T08:28:08.647Z,23.53
2019-01-31T08:31:11.159Z,23.27
2019-01-31T08:34:13.795Z,22.23
2019-01-31T08:37:16.471Z,22.60
2019-01-31T08:40:19.271Z,24.57
2019-01-31T08:43:22.726Z,25.10
2019-01-31T08:46:25.381Z,21.83
2019-01-31T08:49:28.033Z,24.33
2019-01-31T08:52:30.741Z,23.70
2019-01-31T08:55:33.466Z,28.50
2019-01-31T08:58:36.185Z,26.43
2019-01-31T09:01:38.897Z,22.13
2019-01-31T09:04:41.620Z,30.00
2019-01-31T09:07:44.198Z,22.00
2019-01-31T09:10:46.904Z,25.23
2019-01-31T09:13:49.605Z,26.90
2019-01-31T09:16:52.169Z,32.70
2019-01-31T09:19:54.791Z,23.53
2019-01-31T09:23:25.153Z,20.00
2019-01-31T09:27:11.828Z,23.50
2019-01-31T09:30:36.355Z,22.30
2019-01-31T09:33:48.004Z,23.07
2019-01-31T09:37:17.923Z,22.00
2019-01-31T09:41:08.396Z,19.47
2019-01-31T09:44:56.960Z,21.50
2019-01-31T09:48:10.050Z,18.70
2019-01-31T09:51:42.599Z,17.80
2019-01-31T09:55:03.826Z,21.50
2019-01-31T09:58:36.813Z,15.33
2019-01-31T10:02:36.739Z,17.10
2019-01-31T10:06:31.994Z,15.23
2019-01-31T10:10:12.921Z,16.87
2019-01-31T10:14:09.910Z,19.20
2019-01-31T10:18:06.479Z,16.80
2019-01-31T10:21:49.870Z,19.20
2019-01-31T10:25:45.372Z,26.03
2019-01-31T10:29:34.849Z,13.93
2019-01-31T10:33:11.209Z,17.70
2019-01-31T10:36:48.164Z,19.20
2019-01-31T10:40:11.490Z,13.00
2019-01-31T10:43:24.740Z,13.37
2019-01-31T10:46:50.118Z,11.53
2019-01-31T10:50:25.610Z,14.37
2019-01-31T10:54:01.548Z,14.73
2019-01-31T10:57:29.209Z,13.13
2019-01-31T11:00:59.548Z,12.40
2019-01-31T11:04:56.152Z,12.43
2019-01-31T11:08:40.500Z,13.40
2019-01-31T11:12:25.638Z,12.53
2019-01-31T11:16:05.713Z,11.43
2019-01-31T11:19:30.095Z,12.70
2019-01-31T11:23:04.219Z,12.43
2019-01-31T11:26:23.802Z,11.47
2019-01-31T11:29:45.812Z,11.50
2019-01-31T11:33:26.518Z,15.17
2019-01-31T11:37:23.162Z,11.03
2019-01-31T11:41:35.059Z,10.80
2019-01-31T11:45:18.253Z,8.07
2019-01-31T11:48:31.870Z,6.43
2019-01-31T11:52:32.243Z,6.93
2019-01-31T11:56:29.289Z,8.17
2019-01-31T11:59:31.978Z,7.80
2019-01-31T12:02:34.761Z,7.47
2019-01-31T12:05:37.416Z,7.10
2019-01-31T12:08:40.078Z,7.93
2019-01-31T12:11:42.682Z,8.03
2019-01-31T12:14:45.279Z,7.47
2019-01-31T12:17:47.840Z,7.57
2019-01-31T12:20:50.381Z,9.97
2019-01-31T12:23:53.009Z,8.13
2019-01-31T12:26:55.607Z,8.17
2019-01-31T12:29:58.318Z,7.30
2019-01-31T12:33:02.057Z,6.40
2019-01-31T12:36:05.178Z,7.63
2019-01-31T12:39:09.772Z,6.23
2019-01-31T12:42:13.341Z,7.67
2019-01-31T12:45:17.433Z,8.70
2019-01-31T12:48:20.023Z,6.47
2019-01-31T12:51:22.643Z,10.33
2019-01-31T12:54:25.333Z,7.30
2019-01-31T12:57:28.016Z,8.50
2019-01-31T13:00:30.604Z,11.77
2019-01-31T13:03:33.277Z,7.13
2019-01-31T13:06:35.872Z,9.43
2019-01-31T13:09:38.578Z,6.63
2019-01-31T13:12:48.428Z,7.23
2019-01-31T13:15:45.976Z,8.47
2019-01-31T13:18:48.602Z,12.37
2019-01-31T13:21:51.364Z,11.90
2019-01-31T13:24:54.169Z,6.93
2019-01-31T13:27:57.069Z,11.70
2019-01-31T13:30:59.687Z,8.00
2019-01-31T13:34:02.472Z,9.50
2019-01-31T13:37:05.288Z,7.63
2019-01-31T13:40:13.380Z,7.40
2019-01-31T13:43:17.172Z,6.40
2019-01-31T13:46:20.001Z,8.20
2019-01-31T13:49:22.746Z,9.03
2019-01-31T13:52:25.387Z,10.03
2019-01-31T13:55:29.372Z,13.00
2019-01-31T13:58:32.062Z,6.67
2019-01-31T14:01:34.627Z,8.50
2019-01-31T14:04:37.280Z,6.17
2019-01-31T14:07:40.159Z,8.93
2019-01-31T14:10:42.868Z,6.53
2019-01-31T14:13:45.628Z,10.83
2019-01-31T14:16:48.268Z,18.53
2019-01-31T14:19:50.944Z,8.63
2019-01-31T14:22:53.723Z,8.90
2019-01-31T14:25:56.272Z,8.10
2019-01-31T14:28:58.847Z,14.63
2019-01-31T14:32:01.396Z,8.17
2019-01-31T14:35:04.882Z,5.77
2019-01-31T14:38:07.727Z,8.17
2019-01-31T14:41:10.392Z,12.67
2019-01-31T14:44:20.182Z,8.23
2019-01-31T14:47:17.778Z,9.47
2019-01-31T14:50:23.443Z,7.23
2019-01-31T14:53:26.163Z,7.83
2019-01-31T14:56:28.744Z,7.03
2019-01-31T14:59:31.336Z,8.90
2019-01-31T15:02:33.983Z,6.43
2019-01-31T15:05:37.003Z,8.27
2019-01-31T15:08:39.783Z,9.90
2019-01-31T15:11:42.343Z,4.80
2019-01-31T15:14:45.065Z,7.10
2019-01-31T15:17:47.749Z,9.83
2019-01-31T15:20:50.532Z,7.23
2019-01-31T15:23:53.088Z,7.63
2019-01-31T15:26:55.692Z,6.80
2019-01-31T15:29:59.304Z,6.67
2019-01-31T15:33:03.804Z,9.03
2019-01-31T15:36:06.707Z,7.73
2019-01-31T15:39:09.403Z,8.67
2019-01-31T15:42:12.193Z,5.30
2019-01-31T15:45:14.939Z,7.23
2019-01-31T15:48:17.949Z,15.83
2019-01-31T15:51:20.529Z,14.80
2019-01-31T15:54:23.238Z,9.43
2019-01-31T15:57:26.028Z,9.90
2019-01-31T16:00:39.627Z,6.53
2019-01-31T16:03:43.411Z,5.13
2019-01-31T16:06:46.211Z,6.33
2019-01-31T16:09:48.953Z,8.23
2019-01-31T16:12:53.624Z,10.73
2019-01-31T16:15:56.136Z,7.90
2019-01-31T16:18:58.864Z,7.77
2019-01-31T16:22:01.554Z,6.90
2019-01-31T16:25:04.983Z,13.87
2019-01-31T16:28:07.958Z,5.97
2019-01-31T16:31:10.627Z,7.07
2019-01-31T16:34:13.316Z,7.97
2019-01-31T16:37:16.102Z,11.50
2019-01-31T16:40:18.946Z,7.67
2019-01-31T16:43:21.698Z,5.80
2019-01-31T16:46:24.253Z,5.77
2019-01-31T16:49:26.957Z,11.13
2019-01-31T16:52:30.719Z,10.93
2019-01-31T16:55:33.387Z,9.50
2019-01-31T16:58:36.022Z,6.90
2019-01-31T17:01:38.631Z,6.53
2019-01-31T17:04:41.293Z,6.30
2019-01-31T17:07:43.971Z,6.77
2019-01-31T17:10:47.782Z,10.03
2019-01-31T17:13:50.509Z,10.20
2019-01-31T17:16:54.161Z,6.33
2019-01-31T17:19:57.994Z,6.97
2019-01-31T17:23:00.653Z,7.70
2019-01-31T17:26:03.813Z,5.27
2019-01-31T17:29:06.455Z,6.40
2019-01-31T17:32:10.177Z,5.57
2019-01-31T17:35:12.884Z,4.67
2019-01-31T17:38:15.508Z,8.40
2019-01-31T17:41:19.003Z,10.10
2019-01-31T17:44:21.566Z,10.90
2019-01-31T17:47:25.153Z,6.47
2019-01-31T17:50:27.908Z,8.87
2019-01-31T17:53:30.512Z,8.20
2019-01-31T17:56:33.117Z,6.47
2019-01-31T17:59:35.765Z,4.67
2019-01-31T18:02:45.315Z,12.47
2019-01-31T18:05:42.932Z,4.70
2019-01-31T18:08:45.676Z,7.17
2019-01-31T18:11:48.327Z,5.73
2019-01-31T18:14:50.927Z,6.33
2019-01-31T18:17:53.516Z,5.77
2019-01-31T18:20:56.186Z,6.70
2019-01-31T18:23:58.959Z,7.67
2019-01-31T18:27:01.561Z,7.63
2019-01-31T18:30:06.969Z,6.83
2019-01-31T18:33:09.683Z,12.53
2019-01-31T18:36:12.296Z,7.97
2019-01-31T18:39:14.916Z,7.10
2019-01-31T18:42:17.736Z,7.60
2019-01-31T18:45:25.620Z,5.70
2019-01-31T18:48:28.385Z,7.63
2019-01-31T18:51:31.242Z,11.63
2019-01-31T18:54:34.106Z,8.20
2019-01-31T18:57:37.616Z,10.57
2019-01-31T19:00:43.118Z,11.40
2019-01-31T19:03:45.847Z,9.90
2019-01-31T19:06:48.422Z,10.37
2019-01-31T19:09:52.643Z,11.00
2019-01-31T19:12:55.528Z,7.90
2019-01-31T19:16:05.190Z,7.27
2019-01-31T19:19:03.084Z,8.50
2019-01-31T19:22:05.827Z,8.57
2019-01-31T19:25:08.961Z,8.77
2019-01-31T19:28:13.254Z,10.80
2019-01-31T19:31:16.083Z,7.80
2019-01-31T19:34:18.818Z,5.17
2019-01-31T19:37:21.499Z,6.23
2019-01-31T19:40:27.202Z,10.10
2019-01-31T19:43:32.846Z,8.27
2019-01-31T19:46:35.547Z,8.33
2019-01-31T19:49:38.700Z,7.40
2019-01-31T19:52:41.361Z,7.80
2019-01-31T19:55:44.051Z,6.80
2019-01-31T19:58:48.586Z,12.63
2019-01-31T20:01:51.328Z,11.60
2019-01-31T20:04:54.117Z,6.93
2019-01-31T20:07:57.158Z,8.43
2019-01-31T20:11:00.052Z,6.60
2019-01-31T20:14:02.899Z,9.93
2019-01-31T20:17:08.481Z,8.20
2019-01-31T20:20:19.526Z,7.57
2019-01-31T20:23:24.753Z,8.30
2019-01-31T20:26:30.573Z,5.50
2019-01-31T20:29:33.316Z,7.73
2019-01-31T20:32:36.232Z,12.97
2019-01-31T20:35:40.055Z,10.53
2019-01-31T20:38:44.938Z,7.50
2019-01-31T20:41:54.368Z,10.10
2019-01-31T20:44:52.138Z,7.30
2019-01-31T20:47:54.933Z,8.10
2019-01-31T20:50:57.802Z,7.73
2019-01-31T20:54:00.664Z,8.07
2019-01-31T20:57:03.442Z,6.60
2019-01-31T21:00:13.823Z,9.60
2019-01-31T21:03:19.852Z,8.70
2019-01-31T21:06:22.612Z,8.50
2019-01-31T21:09:28.690Z,8.03
2019-01-31T21:12:31.712Z,10.07
2019-01-31T21:15:34.581Z,7.60
2019-01-31T21:18:37.215Z,8.50
2019-01-31T21:21:40.010Z,9.33
2019-01-31T21:24:44.541Z,9.20
2019-01-31T21:27:48.265Z,7.77
2019-01-31T21:30:50.847Z,8.37
2019-01-31T21:33:53.581Z,9.73
2019-01-31T21:36:56.237Z,6.10
2019-01-31T21:39:58.982Z,11.37
2019-01-31T21:43:01.692Z,10.37
2019-01-31T21:46:04.538Z,7.30
2019-01-31T21:49:07.214Z,8.77
2019-01-31T21:52:10.059Z,8.83
2019-01-31T21:55:13.851Z,8.90
2019-01-31T21:58:18.378Z,9.40
2019-01-31T22:01:21.105Z,11.55
2019-01-31T22:04:23.911Z,9.53
2019-01-31T22:07:26.577Z,7.70
2019-01-31T22:10:29.404Z,5.80
2019-01-31T22:13:32.083Z,10.73
2019-01-31T22:16:34.752Z,8.20
2019-01-31T22:19:37.547Z,7.67
2019-01-31T22:22:40.166Z,9.10
2019-01-31T22:25:42.905Z,7.93
2019-01-31T22:28:45.661Z,8.60
2019-01-31T22:31:48.418Z,5.80
2019-01-31T22:34:51.136Z,11.93
2019-01-31T22:37:54.005Z,9.50
2019-01-31T22:40:56.720Z,11.07
2019-01-31T22:43:59.337Z,8.87
2019-01-31T22:47:02.065Z,8.20
2019-01-31T22:50:06.040Z,6.07
2019-01-31T22:53:08.840Z,9.03
2019-01-31T22:56:11.446Z,7.53
2019-01-31T22:59:14.312Z,8.03
2019-01-31T23:02:17.040Z,11.53
2019-01-31T23:05:19.623Z,11.17
2019-01-31T23:08:23.475Z,9.00
2019-01-31T23:11:26.719Z,23.13
2019-01-31T23:14:30.444Z,8.20
2019-01-31T23:17:37.318Z,8.63
2019-01-31T23:20:37.609Z,30.80
2019-01-31T23:23:40.322Z,12.40
2019-01-31T23:26:42.920Z,10.03
2019-01-31T23:29:45.615Z,8.90
2019-01-31T23:32:48.264Z,11.07
2019-01-31T23:35:50.939Z,14.53
2019-01-31T23:38:53.654Z,16.40
2019-01-31T23:41:56.381Z,26.90
2019-01-31T23:44:59.086Z,18.43
2019-01-31T23:48:01.701Z,21.03
2019-01-31T23:51:04.484Z,10.87
2019-01-31T23:54:07.269Z,10.47
2019-01-31T23:57:09.905Z,13.90
